createdAt,value
2023-08-10T00:17:22.730Z,12.9
2023-08-10T00:37:23.095Z,12.8
2023-08-10T00:57:23.499Z,12.9
2023-08-10T01:07:23.701Z,12.9
2023-08-10T01:17:23.904Z,12.9
2023-08-10T01:27:24.112Z,12.9
2023-08-10T01:37:24.341Z,12.9
2023-08-10T01:47:24.500Z,12.9
2023-08-10T01:57:24.750Z,12.8
2023-08-10T02:07:24.941Z,12.7
2023-08-10T02:17:25.162Z,12.8
2023-08-10T02:27:25.283Z,13
2023-08-10T02:37:25.538Z,13.1
2023-08-10T02:57:25.902Z,13.1
2023-08-10T03:17:26.310Z,13.1
2023-08-10T03:27:26.522Z,13
2023-08-10T03:37:26.697Z,13
2023-08-10T03:57:27.196Z,12.8
2023-08-10T04:07:27.283Z,12.6
2023-08-10T04:17:27.548Z,12.6
2023-08-10T04:27:29.342Z,12.5
2023-08-10T04:37:27.878Z,12.4
2023-08-10T05:07:28.481Z,12.1
2023-08-10T05:17:28.700Z,12.1
2023-08-10T05:27:28.883Z,12.1
2023-08-10T05:37:29.091Z,12.3
2023-08-10T05:47:29.350Z,12.6
2023-08-10T05:57:29.494Z,13.2
2023-08-10T06:07:29.684Z,13.7
2023-08-10T06:17:29.953Z,14.1
2023-08-10T06:37:30.292Z,14.7
2023-08-10T06:47:30.500Z,15.4
2023-08-10T06:57:30.664Z,16.2
2023-08-10T07:17:31.089Z,16.6
2023-08-10T07:37:31.531Z,17.2
2023-08-10T08:17:32.268Z,18.2
2023-08-10T08:27:32.453Z,18.9
2023-08-10T08:37:32.644Z,19
2023-08-10T08:57:33.049Z,19.6
2023-08-10T09:07:33.249Z,19.9
2023-08-10T09:17:33.454Z,19.7
2023-08-10T09:37:33.857Z,20.1
2023-08-10T09:57:34.240Z,20.3
2023-08-10T10:17:34.636Z,20.8
2023-08-10T10:47:35.217Z,21.4
2023-08-10T10:57:35.405Z,21.8
2023-08-10T11:17:47.861Z,22.3
2023-08-10T11:27:36.006Z,21.7
2023-08-10T11:37:36.183Z,21.9
2023-08-10T11:47:41.579Z,21.9
2023-08-10T11:57:36.578Z,22.4
2023-08-10T12:07:36.795Z,22.9
2023-08-10T12:17:37.051Z,23.5
2023-08-10T12:27:37.164Z,23
2023-08-10T12:37:37.353Z,23.3
2023-08-10T12:47:37.599Z,22.9
2023-08-10T12:57:37.778Z,22.7
2023-08-10T13:07:37.943Z,22.4
2023-08-10T13:17:38.212Z,22.4
2023-08-10T13:27:38.334Z,22.1
2023-08-10T13:37:38.526Z,21.9
2023-08-10T13:47:38.776Z,22.4
2023-08-10T13:57:38.934Z,22.7
2023-08-10T14:07:39.131Z,23.5
2023-08-10T14:17:39.339Z,23.4
2023-08-10T14:27:39.546Z,23.2
2023-08-10T14:37:39.755Z,23.2
2023-08-10T14:47:39.990Z,23.7
2023-08-10T14:57:40.094Z,23.7
2023-08-10T15:17:40.518Z,24.9
2023-08-10T15:27:40.730Z,24.2
2023-08-10T15:37:40.912Z,24.3
2023-08-10T15:47:41.102Z,24.7
2023-08-10T15:57:41.286Z,24.3
2023-08-10T16:17:41.699Z,25.5
2023-08-10T16:27:41.943Z,25.2
2023-08-10T16:37:42.078Z,24.1
2023-08-10T16:47:42.368Z,23.5
2023-08-10T16:57:42.473Z,23
2023-08-10T17:07:42.678Z,22.6
2023-08-10T17:17:42.880Z,22.5
2023-08-10T17:27:43.080Z,22.5
2023-08-10T17:37:43.263Z,22.5
2023-08-10T17:47:43.471Z,22.3
2023-08-10T17:57:43.675Z,22.1
2023-08-10T18:07:43.850Z,21.8
2023-08-10T18:17:44.056Z,21.6
2023-08-10T18:27:44.231Z,21.3
2023-08-10T18:37:44.437Z,21.1
2023-08-10T18:47:44.629Z,20.6
2023-08-10T18:57:44.812Z,20.1
2023-08-10T19:07:45.048Z,19.7
2023-08-10T19:17:45.253Z,19.2
2023-08-10T19:27:45.470Z,19
2023-08-10T19:37:45.610Z,18.6
2023-08-10T19:47:45.863Z,18.2
2023-08-10T19:57:46.005Z,17.9
2023-08-10T20:07:46.202Z,17.6
2023-08-10T20:17:46.474Z,17.4
2023-08-10T20:37:46.852Z,16.9
2023-08-10T20:47:47.081Z,16.8
2023-08-10T20:57:47.210Z,16.6
2023-08-10T21:07:47.392Z,16.5
2023-08-10T21:17:47.612Z,16.3
2023-08-10T21:27:47.782Z,16.1
2023-08-10T21:37:47.978Z,16
2023-08-10T21:47:48.213Z,15.9
2023-08-10T21:57:48.391Z,15.8
2023-08-10T22:07:48.588Z,15.7
2023-08-10T22:17:48.852Z,15.6
2023-08-10T22:27:48.971Z,15.4
2023-08-10T22:37:49.239Z,15.2
2023-08-10T22:47:49.428Z,15.3
2023-08-10T22:57:49.575Z,15.2
2023-08-10T23:07:49.833Z,15.1
2023-08-10T23:17:50.025Z,15
2023-08-10T23:27:50.156Z,14.9
2023-08-10T23:37:50.376Z,14.8
2023-08-10T23:47:50.608Z,14.8
2023-08-10T23:57:50.771Z,14.7
